createdAt,value
2018-09-27T00:01:48.184Z,146019.91
2018-09-27T00:04:18.159Z,146023.61
2018-09-27T00:06:48.913Z,146040.89
2018-09-27T00:09:19.329Z,146033.48
2018-09-27T00:11:49.604Z,146039.66
2018-09-27T00:14:20.429Z,146063.17
2018-09-27T00:16:50.795Z,146056.98
2018-09-27T00:19:20.930Z,146069.34
2018-09-27T00:21:51.184Z,146080.45
2018-09-27T00:24:21.223Z,146065.63
2018-09-27T00:26:51.638Z,146001.38
2018-09-27T00:29:21.892Z,145954.42
2018-09-27T00:31:51.924Z,145951.97
2018-09-27T00:34:22.508Z,145934.62
2018-09-27T00:36:52.988Z,145935.87
2018-09-27T00:39:23.273Z,145932.16
2018-09-27T00:41:53.593Z,145933.39
2018-09-27T00:44:23.751Z,145929.69
2018-09-27T00:46:54.283Z,145905.00
2018-09-27T00:49:24.953Z,145895.09
2018-09-27T00:51:55.722Z,145896.33
2018-09-27T00:54:25.955Z,145887.69
2018-09-27T00:56:57.247Z,145880.28
2018-09-27T00:59:27.125Z,145872.88
2018-09-27T01:01:59.137Z,145860.53
2018-09-27T01:04:30.081Z,145872.88
2018-09-27T01:07:00.356Z,145849.39
2018-09-27T01:09:30.472Z,145850.62
2018-09-27T01:12:03.349Z,145860.53
2018-09-27T01:14:33.449Z,145859.31
2018-09-27T01:17:03.633Z,145870.41
2018-09-27T01:19:33.537Z,145880.28
2018-09-27T01:22:03.679Z,145883.98
2018-09-27T01:24:33.821Z,145864.25
2018-09-27T01:27:05.101Z,145860.53
2018-09-27T01:29:35.204Z,145870.41
2018-09-27T01:32:06.444Z,145861.77
2018-09-27T01:34:36.664Z,145871.64
2018-09-27T01:37:06.894Z,145882.75
2018-09-27T01:39:36.901Z,145887.69
2018-09-27T01:42:07.253Z,145867.94
2018-09-27T01:44:37.393Z,145882.75
2018-09-27T01:47:07.637Z,145896.33
2018-09-27T01:49:38.288Z,145897.56
2018-09-27T01:52:09.069Z,145891.39
2018-09-27T01:54:39.202Z,145914.88
2018-09-27T01:57:09.844Z,145913.66
2018-09-27T01:59:40.173Z,145933.39
2018-09-27T02:02:11.913Z,145949.50
2018-09-27T02:04:42.137Z,145946.97
2018-09-27T02:07:12.417Z,145946.97
2018-09-27T02:09:42.660Z,145935.87
2018-09-27T02:12:12.878Z,145938.34
2018-09-27T02:14:44.018Z,145939.56
2018-09-27T02:17:14.062Z,145946.97
2018-09-27T02:19:44.040Z,145906.25
2018-09-27T02:22:15.326Z,145880.28
2018-09-27T02:24:47.081Z,145924.75
2018-09-27T02:27:17.176Z,145906.25
2018-09-27T02:29:47.097Z,145880.28
2018-09-27T02:32:19.754Z,145896.33
2018-09-27T02:34:49.757Z,145898.80
2018-09-27T02:37:19.947Z,145892.63
2018-09-27T02:39:50.008Z,145890.16
2018-09-27T02:42:20.400Z,145888.92
2018-09-27T02:44:50.413Z,145891.39
2018-09-27T02:47:20.429Z,145898.80
2018-09-27T02:49:50.608Z,145887.69
2018-09-27T02:52:21.536Z,145885.22
2018-09-27T02:54:52.242Z,145881.52
2018-09-27T02:57:22.481Z,145871.64
2018-09-27T02:59:52.674Z,145808.67
2018-09-27T03:02:23.140Z,145733.28
2018-09-27T03:04:53.635Z,145729.58
2018-09-27T03:07:23.716Z,145713.55
2018-09-27T03:09:53.834Z,145720.94
2018-09-27T03:12:24.069Z,145722.19
2018-09-27T03:14:54.414Z,145723.41
2018-09-27T03:17:24.555Z,145746.84
2018-09-27T03:19:54.498Z,145751.78
2018-09-27T03:22:24.406Z,145745.61
2018-09-27T03:24:55.082Z,145764.16
2018-09-27T03:27:26.324Z,145754.25
2018-09-27T03:29:56.465Z,145767.86
2018-09-27T03:32:26.728Z,145767.86
2018-09-27T03:34:56.822Z,145777.78
2018-09-27T03:37:28.342Z,145787.64
2018-09-27T03:39:58.907Z,145798.75
2018-09-27T03:42:29.893Z,145806.16
2018-09-27T03:45:00.054Z,145793.81
2018-09-27T03:47:30.223Z,145781.48
2018-09-27T03:50:00.683Z,145779.02
2018-09-27T03:52:31.904Z,145779.02
2018-09-27T03:55:02.165Z,145771.61
2018-09-27T03:57:32.392Z,145709.80
2018-09-27T04:00:02.551Z,145692.53
2018-09-27T04:02:32.883Z,145692.53
2018-09-27T04:05:03.065Z,145669.09
2018-09-27T04:07:33.630Z,145670.34
2018-09-27T04:10:03.938Z,145669.09
2018-09-27T04:12:34.770Z,145665.36
2018-09-27T04:15:05.835Z,145674.03
2018-09-27T04:17:36.141Z,145697.47
2018-09-27T04:20:06.201Z,145690.06
2018-09-27T04:22:37.507Z,145685.13
2018-09-27T04:25:07.772Z,145667.86
2018-09-27T04:27:37.893Z,145699.94
2018-09-27T04:30:09.712Z,145751.78
2018-09-27T04:32:40.836Z,145775.31
2018-09-27T04:35:11.179Z,145832.11
2018-09-27T04:37:42.310Z,145839.52
2018-09-27T04:40:13.644Z,145840.75
2018-09-27T04:42:43.715Z,145860.53
2018-09-27T04:45:14.356Z,145864.25
2018-09-27T04:47:44.686Z,145895.09
2018-09-27T04:50:15.706Z,145909.94
2018-09-27T04:52:46.086Z,145946.97
2018-09-27T04:55:16.179Z,145969.25
2018-09-27T04:57:47.670Z,146054.53
2018-09-27T05:00:18.195Z,146158.36
2018-09-27T05:02:50.168Z,146242.50
2018-09-27T05:05:20.625Z,146340.22
2018-09-27T05:07:51.696Z,146270.92
2018-09-27T05:10:22.912Z,146197.94
2018-09-27T05:12:52.969Z,146195.47
2018-09-27T05:15:23.096Z,146236.31
2018-09-27T05:17:53.259Z,146273.39
2018-09-27T05:20:23.522Z,146275.91
2018-09-27T05:22:55.728Z,146249.91
2018-09-27T05:25:26.611Z,146241.27
2018-09-27T05:27:57.465Z,146336.50
2018-09-27T05:30:28.559Z,146449.09
2018-09-27T05:32:59.001Z,146486.23
2018-09-27T05:35:30.077Z,146502.31
2018-09-27T05:38:00.191Z,146570.42
2018-09-27T05:40:31.456Z,146762.44
2018-09-27T05:43:01.880Z,146773.56
2018-09-27T05:45:32.093Z,146776.05
2018-09-27T05:48:02.421Z,146875.17
2018-09-27T05:50:33.516Z,147016.53
2018-09-27T05:53:03.789Z,147107.06
2018-09-27T05:55:34.329Z,147219.97
2018-09-27T05:58:04.435Z,147373.88
2018-09-27T06:00:34.651Z,147397.44
2018-09-27T06:03:06.550Z,147457.06
2018-09-27T06:05:37.889Z,147480.64
2018-09-27T06:08:08.123Z,147566.37
2018-09-27T06:10:39.761Z,147537.80
2018-09-27T06:13:10.049Z,147453.34
2018-09-27T06:15:40.467Z,147371.41
2018-09-27T06:18:10.647Z,147455.83
2018-09-27T06:20:40.797Z,147476.91
2018-09-27T06:23:11.262Z,147549.00
2018-09-27T06:25:41.329Z,147625.98
2018-09-27T06:28:11.660Z,147596.20
2018-09-27T06:30:41.708Z,147684.38
2018-09-27T06:33:13.419Z,147669.47
2018-09-27T06:35:43.826Z,147521.63
2018-09-27T06:38:13.924Z,147381.33
2018-09-27T06:40:44.230Z,147299.39
2018-09-27T06:43:14.266Z,147145.52
2018-09-27T06:45:44.475Z,147076.09
2018-09-27T06:48:14.831Z,147066.12
2018-09-27T06:50:45.373Z,147031.44
2018-09-27T06:53:15.572Z,146954.56
2018-09-27T06:55:46.521Z,146883.84
2018-09-27T06:58:17.770Z,146865.27
2018-09-27T07:00:47.990Z,146882.59
2018-09-27T07:03:19.119Z,146898.75
2018-09-27T07:05:49.152Z,146861.55
2018-09-27T07:08:20.226Z,146880.12
2018-09-27T07:10:50.835Z,146898.75
2018-09-27T07:13:21.369Z,146929.70
2018-09-27T07:15:51.811Z,146952.08
2018-09-27T07:18:21.990Z,147002.91
2018-09-27T07:20:53.196Z,147037.63
2018-09-27T07:23:24.143Z,146895.03
2018-09-27T07:25:54.246Z,147023.97
2018-09-27T07:28:25.461Z,147062.41
2018-09-27T07:30:55.788Z,147097.14
2018-09-27T07:33:27.647Z,147120.69
2018-09-27T07:35:57.720Z,147125.69
2018-09-27T07:38:27.982Z,147136.84
2018-09-27T07:40:57.925Z,147182.75
2018-09-27T07:43:28.641Z,147206.28
2018-09-27T07:45:59.175Z,147219.97
2018-09-27T07:48:29.722Z,147239.80
2018-09-27T07:51:00.187Z,147268.41
2018-09-27T07:53:30.723Z,147275.84
2018-09-27T07:56:01.154Z,147296.91
2018-09-27T07:58:32.482Z,147282.03
2018-09-27T08:01:02.626Z,147289.47
2018-09-27T08:03:35.278Z,147298.16
2018-09-27T08:06:05.676Z,147318.03
2018-09-27T08:08:37.010Z,147380.08
2018-09-27T08:11:07.315Z,147363.97
2018-09-27T08:13:37.607Z,147359.00
2018-09-27T08:16:07.667Z,147419.81
2018-09-27T08:18:38.672Z,147397.44
2018-09-27T08:21:09.014Z,147352.75
2018-09-27T08:23:39.204Z,147370.16
2018-09-27T08:26:09.385Z,147391.23
2018-09-27T08:28:39.786Z,147417.33
2018-09-27T08:31:10.017Z,147455.83
2018-09-27T08:33:40.145Z,147480.64
2018-09-27T08:36:10.448Z,147469.47
2018-09-27T08:38:40.766Z,147486.84
2018-09-27T08:41:12.256Z,147493.03
2018-09-27T08:43:42.687Z,147450.81
2018-09-27T08:46:12.807Z,147501.77
2018-09-27T08:48:43.365Z,147526.58
2018-09-27T08:51:13.632Z,147512.94
2018-09-27T08:53:44.735Z,147489.31
2018-09-27T08:56:15.113Z,147507.97
2018-09-27T08:58:45.331Z,147563.91
2018-09-27T09:01:15.840Z,147611.09
2018-09-27T09:03:48.067Z,147624.75
2018-09-27T09:06:18.025Z,147650.86
2018-09-27T09:08:48.235Z,147679.41
2018-09-27T09:11:18.574Z,147649.61
2018-09-27T09:13:48.691Z,147642.17
2018-09-27T09:16:18.904Z,147619.78
2018-09-27T09:18:49.248Z,147648.38
2018-09-27T09:21:20.568Z,147691.86
2018-09-27T09:23:50.558Z,147742.80
2018-09-27T09:26:21.539Z,147793.75
2018-09-27T09:28:51.484Z,147778.80
2018-09-27T09:31:21.836Z,147816.14
2018-09-27T09:33:51.959Z,147771.36
2018-09-27T09:36:22.172Z,147711.72
2018-09-27T09:38:52.713Z,147744.05
2018-09-27T09:41:23.113Z,147818.62
2018-09-27T09:43:53.687Z,147831.09
2018-09-27T09:46:23.842Z,147806.22
2018-09-27T09:48:54.049Z,147806.22
2018-09-27T09:51:24.263Z,147839.78
2018-09-27T09:53:55.436Z,147870.83
2018-09-27T09:56:25.390Z,147855.94
2018-09-27T09:58:55.696Z,147879.58
2018-09-27T10:01:25.723Z,147875.84
2018-09-27T10:03:55.996Z,147905.66
2018-09-27T10:06:26.161Z,147909.38
2018-09-27T10:08:56.481Z,147940.48
2018-09-27T10:11:26.627Z,147947.94
2018-09-27T10:13:56.911Z,147995.19
2018-09-27T10:16:27.977Z,148033.75
2018-09-27T10:18:59.241Z,148010.09
2018-09-27T10:21:29.788Z,147995.19
2018-09-27T10:24:00.314Z,147920.56
2018-09-27T10:26:30.337Z,147883.30
2018-09-27T10:29:02.156Z,147870.83
2018-09-27T10:31:32.236Z,147804.97
2018-09-27T10:34:02.413Z,147841.03
2018-09-27T10:36:32.819Z,147873.31
2018-09-27T10:39:04.164Z,147898.20
2018-09-27T10:41:33.998Z,147885.78
2018-09-27T10:44:04.310Z,147870.83
2018-09-27T10:46:34.485Z,147868.34
2018-09-27T10:49:04.479Z,147883.30
2018-09-27T10:51:34.582Z,147903.17
2018-09-27T10:54:04.827Z,147885.78
2018-09-27T10:56:35.068Z,147894.48
2018-09-27T10:59:06.028Z,147898.20
2018-09-27T11:01:36.214Z,147895.72
2018-09-27T11:04:07.319Z,147906.91
2018-09-27T11:06:37.853Z,147918.08
2018-09-27T11:09:09.914Z,147938.00
2018-09-27T11:11:40.788Z,147975.31
2018-09-27T11:14:11.022Z,148010.09
2018-09-27T11:16:41.110Z,148025.06
2018-09-27T11:19:11.397Z,148020.09
2018-09-27T11:21:41.755Z,148015.06
2018-09-27T11:24:12.209Z,148021.33
2018-09-27T11:26:42.677Z,148018.84
2018-09-27T11:29:17.848Z,148012.58
2018-09-27T11:31:53.064Z,147995.19
2018-09-27T11:34:24.724Z,148007.61
2018-09-27T11:36:54.913Z,148018.84
2018-09-27T11:39:26.176Z,148017.59
2018-09-27T11:41:56.359Z,147997.67
2018-09-27T11:44:27.707Z,147997.67
2018-09-27T11:46:59.008Z,148010.09
2018-09-27T11:49:29.477Z,147977.80
2018-09-27T11:51:59.489Z,147977.80
2018-09-27T11:54:29.730Z,147961.59
2018-09-27T11:57:00.261Z,147991.47
2018-09-27T11:59:30.447Z,148017.59
2018-09-27T12:02:00.532Z,148012.58
2018-09-27T12:04:30.826Z,147998.92
2018-09-27T12:07:01.355Z,147977.80
2018-09-27T12:09:31.577Z,148002.64
2018-09-27T12:12:01.907Z,147975.31
2018-09-27T12:14:32.087Z,147990.22
2018-09-27T12:17:02.825Z,147960.36
2018-09-27T12:19:32.914Z,147957.88
2018-09-27T12:22:03.534Z,147974.06
2018-09-27T12:24:33.685Z,147949.19
2018-09-27T12:27:04.087Z,147942.97
2018-09-27T12:29:36.174Z,147959.13
2018-09-27T12:32:07.348Z,147962.84
2018-09-27T12:34:38.335Z,147961.59
2018-09-27T12:37:08.815Z,147942.97
2018-09-27T12:39:39.384Z,147951.66
2018-09-27T12:42:10.502Z,147946.69
2018-09-27T12:44:40.526Z,147938.00
2018-09-27T12:47:10.607Z,147962.84
2018-09-27T12:49:40.795Z,147950.42
2018-09-27T12:52:11.201Z,147940.48
2018-09-27T12:54:41.309Z,147910.62
2018-09-27T12:57:11.593Z,147938.00
2018-09-27T12:59:43.617Z,147920.56
2018-09-27T13:02:13.686Z,147923.09
2018-09-27T13:04:43.734Z,147908.14
2018-09-27T13:07:13.748Z,147920.56
2018-09-27T13:09:44.001Z,147949.19
2018-09-27T13:12:14.079Z,147955.39
2018-09-27T13:14:45.164Z,147939.25
2018-09-27T13:17:16.389Z,147950.42
2018-09-27T13:19:46.857Z,147947.94
2018-09-27T13:22:16.985Z,147957.88
2018-09-27T13:24:47.241Z,147942.97
2018-09-27T13:27:17.401Z,147940.48
2018-09-27T13:29:47.651Z,147929.31
2018-09-27T13:32:18.858Z,147924.34
2018-09-27T13:34:48.974Z,147883.30
2018-09-27T13:37:19.276Z,147874.56
2018-09-27T13:39:50.223Z,147880.81
2018-09-27T13:42:20.641Z,147848.48
2018-09-27T13:44:51.026Z,147823.59
2018-09-27T13:47:21.264Z,147824.84
2018-09-27T13:49:51.483Z,147809.94
2018-09-27T13:52:21.877Z,147819.88
2018-09-27T13:54:52.433Z,147765.14
2018-09-27T13:57:22.804Z,147742.80
2018-09-27T13:59:53.108Z,147760.19
2018-09-27T14:02:23.184Z,147741.56
2018-09-27T14:04:54.880Z,147716.69
2018-09-27T14:07:25.399Z,147746.53
2018-09-27T14:09:55.709Z,147731.58
2018-09-27T14:12:25.974Z,147714.20
2018-09-27T14:14:56.571Z,147685.61
2018-09-27T14:17:26.715Z,147709.23
2018-09-27T14:19:57.116Z,147690.63
2018-09-27T14:22:27.193Z,147668.23
2018-09-27T14:24:57.708Z,147674.44
2018-09-27T14:27:27.977Z,147700.55
2018-09-27T14:29:58.072Z,147649.61
2018-09-27T14:32:29.248Z,147669.47
2018-09-27T14:35:00.406Z,147691.86
2018-09-27T14:37:30.960Z,147665.75
2018-09-27T14:40:01.447Z,147663.27
2018-09-27T14:42:32.401Z,147681.88
2018-09-27T14:45:03.702Z,147647.13
2018-09-27T14:47:37.590Z,147650.86
2018-09-27T14:50:10.125Z,147617.30
2018-09-27T14:52:41.374Z,147604.89
2018-09-27T14:55:11.867Z,147629.72
2018-09-27T14:57:42.572Z,147642.17
2018-09-27T15:00:13.205Z,147617.30
2018-09-27T15:02:44.295Z,147604.89
2018-09-27T15:05:15.524Z,147580.03
2018-09-27T15:07:46.162Z,147568.86
2018-09-27T15:10:16.397Z,147557.69
2018-09-27T15:12:46.577Z,147549.00
2018-09-27T15:15:16.771Z,147546.53
2018-09-27T15:17:46.907Z,147507.97
2018-09-27T15:20:17.665Z,147505.50
2018-09-27T15:22:48.511Z,147501.77
2018-09-27T15:25:18.804Z,147484.36
2018-09-27T15:27:48.876Z,147475.67
2018-09-27T15:30:18.795Z,147467.00
2018-09-27T15:32:49.031Z,147455.83
2018-09-27T15:35:20.914Z,147445.86
2018-09-27T15:37:51.207Z,147423.53
2018-09-27T15:40:21.301Z,147418.58
2018-09-27T15:42:52.657Z,147398.69
2018-09-27T15:45:22.672Z,147381.33
2018-09-27T15:47:53.861Z,147354.00
2018-09-27T15:50:24.054Z,147339.11
2018-09-27T15:52:54.465Z,147284.52
2018-09-27T15:55:24.774Z,147293.19
2018-09-27T15:57:55.768Z,147282.03
2018-09-27T16:00:27.077Z,147239.80
2018-09-27T16:02:57.356Z,147227.41
2018-09-27T16:05:28.464Z,147180.25
2018-09-27T16:07:58.896Z,147186.45
2018-09-27T16:10:29.052Z,147167.81
2018-09-27T16:12:59.264Z,147143.03
2018-09-27T16:15:31.539Z,147108.30
2018-09-27T16:18:02.232Z,147076.09
2018-09-27T16:20:32.627Z,147058.69
2018-09-27T16:23:02.876Z,147021.48
2018-09-27T16:25:34.425Z,146994.23
2018-09-27T16:28:04.244Z,146981.84
2018-09-27T16:30:34.470Z,146958.28
2018-09-27T16:33:05.898Z,146922.27
2018-09-27T16:35:36.591Z,146913.59
2018-09-27T16:38:06.782Z,146899.97
2018-09-27T16:40:37.157Z,146867.75
2018-09-27T16:43:07.363Z,146840.50
2018-09-27T16:45:37.563Z,146833.03
2018-09-27T16:48:08.025Z,146824.36
2018-09-27T16:50:39.169Z,146813.22
2018-09-27T16:53:10.680Z,146805.80
2018-09-27T16:55:41.907Z,146783.47
2018-09-27T16:58:12.120Z,146768.62
2018-09-27T17:00:42.268Z,146755.00
2018-09-27T17:03:12.718Z,146751.30
2018-09-27T17:05:42.532Z,146755.00
2018-09-27T17:08:13.520Z,146746.34
2018-09-27T17:10:43.814Z,146714.12
2018-09-27T17:13:14.128Z,146709.17
2018-09-27T17:15:44.744Z,146714.12
2018-09-27T17:18:15.199Z,146699.28
2018-09-27T17:20:45.767Z,146679.42
2018-09-27T17:23:15.837Z,146674.47
2018-09-27T17:25:46.090Z,146673.25
2018-09-27T17:28:17.247Z,146669.53
2018-09-27T17:30:47.442Z,146678.19
2018-09-27T17:33:18.243Z,146662.11
2018-09-27T17:35:48.573Z,146659.62
2018-09-27T17:38:18.933Z,146641.03
2018-09-27T17:40:50.151Z,146624.94
2018-09-27T17:43:21.626Z,146631.13
2018-09-27T17:45:52.038Z,146633.61
2018-09-27T17:48:23.628Z,146624.94
2018-09-27T17:50:54.385Z,146615.05
2018-09-27T17:53:25.579Z,146613.81
2018-09-27T17:55:55.912Z,146602.58
2018-09-27T17:58:26.186Z,146611.34
2018-09-27T18:00:56.450Z,146595.16
2018-09-27T18:03:27.844Z,146579.08
2018-09-27T18:05:58.740Z,146588.97
2018-09-27T18:08:29.162Z,146582.80
2018-09-27T18:10:59.053Z,146580.31
2018-09-27T18:13:29.233Z,146572.89
2018-09-27T18:15:59.475Z,146555.53
2018-09-27T18:18:35.803Z,146564.23
2018-09-27T18:21:06.196Z,146566.72
2018-09-27T18:23:42.353Z,146567.94
2018-09-27T18:26:12.874Z,146579.08
2018-09-27T18:28:43.446Z,146565.47
2018-09-27T18:31:14.770Z,146558.06
2018-09-27T18:33:46.548Z,146534.50
2018-09-27T18:36:17.486Z,146536.98
2018-09-27T18:38:47.435Z,146525.84
2018-09-27T18:41:17.821Z,146518.44
2018-09-27T18:43:48.052Z,146508.50
2018-09-27T18:46:18.281Z,146502.31
2018-09-27T18:48:48.592Z,146494.89
2018-09-27T18:51:19.840Z,146502.31
2018-09-27T18:53:50.016Z,146518.44
2018-09-27T18:56:21.162Z,146558.06
2018-09-27T18:58:51.317Z,146536.98
2018-09-27T19:01:21.741Z,146501.08
2018-09-27T19:03:51.810Z,146499.84
2018-09-27T19:06:24.040Z,146488.70
2018-09-27T19:08:54.578Z,146497.36
2018-09-27T19:11:25.086Z,146494.89
2018-09-27T19:13:55.653Z,146520.91
2018-09-27T19:16:25.849Z,146517.19
2018-09-27T19:18:56.404Z,146508.50
2018-09-27T19:21:27.789Z,146496.13
2018-09-27T19:23:58.878Z,146488.70
2018-09-27T19:26:28.933Z,146504.78
2018-09-27T19:28:59.464Z,146499.84
2018-09-27T19:31:30.690Z,146489.94
2018-09-27T19:34:01.852Z,146485.00
2018-09-27T19:36:32.054Z,146498.59
2018-09-27T19:39:02.997Z,146503.55
2018-09-27T19:41:33.010Z,146491.19
2018-09-27T19:44:03.478Z,146466.45
2018-09-27T19:46:33.416Z,146478.81
2018-09-27T19:49:03.449Z,146518.44
2018-09-27T19:51:33.349Z,146506.02
2018-09-27T19:54:03.618Z,146496.13
2018-09-27T19:56:35.099Z,146488.70
2018-09-27T19:59:05.454Z,146488.70
2018-09-27T20:01:35.752Z,146477.58
2018-09-27T20:04:05.819Z,146476.34
2018-09-27T20:06:36.288Z,146460.22
2018-09-27T20:09:09.403Z,146455.28
2018-09-27T20:11:39.451Z,146497.36
2018-09-27T20:14:09.718Z,146471.39
2018-09-27T20:16:40.075Z,146483.77
2018-09-27T20:19:11.002Z,146489.94
2018-09-27T20:21:41.207Z,146477.58
2018-09-27T20:24:12.022Z,146488.70
2018-09-27T20:26:42.473Z,146493.66
2018-09-27T20:29:13.109Z,146488.70
2018-09-27T20:31:43.743Z,146487.47
2018-09-27T20:34:15.137Z,146513.48
2018-09-27T20:36:45.297Z,146513.48
2018-09-27T20:39:16.357Z,146492.42
2018-09-27T20:41:46.581Z,146520.91
2018-09-27T20:44:17.374Z,146523.38
2018-09-27T20:46:47.542Z,146511.02
2018-09-27T20:49:17.768Z,146496.13
2018-09-27T20:51:47.994Z,146501.08
2018-09-27T20:54:18.489Z,146496.13
2018-09-27T20:56:50.104Z,146491.19
2018-09-27T20:59:20.335Z,146515.97
2018-09-27T21:01:51.848Z,146493.66
2018-09-27T21:04:22.304Z,146483.77
2018-09-27T21:06:52.516Z,146472.63
2018-09-27T21:09:23.084Z,146497.36
2018-09-27T21:11:53.570Z,146489.94
2018-09-27T21:14:23.939Z,146477.58
2018-09-27T21:16:54.084Z,146492.42
2018-09-27T21:19:25.116Z,146477.58
2018-09-27T21:21:55.173Z,146477.58
2018-09-27T21:24:25.641Z,146482.53
2018-09-27T21:26:55.812Z,146462.69
2018-09-27T21:29:26.278Z,146465.22
2018-09-27T21:31:56.691Z,146454.03
2018-09-27T21:34:26.783Z,146466.45
2018-09-27T21:36:58.093Z,146475.11
2018-09-27T21:39:29.511Z,146460.22
2018-09-27T21:42:00.021Z,146452.80
2018-09-27T21:44:31.492Z,146440.44
2018-09-27T21:47:01.765Z,146421.89
2018-09-27T21:49:32.092Z,146429.31
2018-09-27T21:52:03.440Z,146419.42
2018-09-27T21:54:33.682Z,146433.02
2018-09-27T21:57:03.989Z,146441.67
2018-09-27T21:59:34.417Z,146442.91
2018-09-27T22:02:05.601Z,146434.25
2018-09-27T22:04:35.998Z,146441.67
2018-09-27T22:07:06.165Z,146434.25
2018-09-27T22:09:37.845Z,146428.08
2018-09-27T22:12:08.045Z,146419.42
2018-09-27T22:14:38.418Z,146424.38
2018-09-27T22:17:08.760Z,146409.48
2018-09-27T22:19:39.043Z,146402.06
2018-09-27T22:22:09.451Z,146394.66
2018-09-27T22:24:39.766Z,146384.77
2018-09-27T22:27:10.088Z,146392.17
2018-09-27T22:29:40.480Z,146397.13
2018-09-27T22:32:10.699Z,146386.00
2018-09-27T22:34:40.803Z,146357.52
2018-09-27T22:37:11.245Z,146388.47
2018-09-27T22:39:42.373Z,146382.28
2018-09-27T22:42:13.410Z,146367.41
2018-09-27T22:44:43.589Z,146352.58
2018-09-27T22:47:14.822Z,146341.45
2018-09-27T22:49:45.583Z,146345.16
2018-09-27T22:52:15.797Z,146345.16
2018-09-27T22:54:45.818Z,146352.58
2018-09-27T22:57:17.132Z,146332.80
2018-09-27T22:59:47.487Z,146357.52
2018-09-27T23:02:18.049Z,146358.75
2018-09-27T23:04:49.197Z,146357.52
2018-09-27T23:07:19.331Z,146353.81
2018-09-27T23:09:51.267Z,146338.98
2018-09-27T23:12:21.343Z,146346.39
2018-09-27T23:14:51.711Z,146337.75
2018-09-27T23:17:22.222Z,146337.75
2018-09-27T23:19:52.486Z,146330.33
2018-09-27T23:22:23.317Z,146321.63
2018-09-27T23:24:53.487Z,146335.28
2018-09-27T23:27:25.896Z,146340.22
2018-09-27T23:29:56.107Z,146336.50
2018-09-27T23:32:26.033Z,146330.33
2018-09-27T23:34:56.346Z,146314.22
2018-09-27T23:37:26.579Z,146306.80
2018-09-27T23:39:56.679Z,146298.16
2018-09-27T23:42:26.967Z,146299.39
2018-09-27T23:44:57.436Z,146305.56
2018-09-27T23:47:27.891Z,146325.37
2018-09-27T23:49:57.817Z,146320.39
2018-09-27T23:52:28.028Z,146304.33
2018-09-27T23:54:58.384Z,146310.50
2018-09-27T23:57:28.580Z,146303.09
2018-09-27T23:59:58.929Z,146306.80
